Time;durP1;ratioP1;P1;durP2;ratioP2;P2;SDS_P1;SDS_P2;PMS_P1;PMS_P2;Temp;Humidity;BMP_temperature;BMP_pressure;BME280_temperature;BME280_humidity;BME280_pressure;Samples;Min_cycle;Max_cycle;Signal;HPM_P1;HPM_P2
2023/02/17 00:00:55;;;;;;;51.97;20.77;;;9.70;99.90;;;;;;4900904;29;34696;-81
2023/02/17 00:03:23;;;;;;;55.70;21.63;;;9.70;99.90;;;;;;4900163;29;39294;-81
2023/02/17 00:05:49;;;;;;;56.80;20.03;;;9.70;99.90;;;;;;4900824;29;37942;-81
2023/02/17 00:08:15;;;;;;;52.93;19.83;;;9.60;99.90;;;;;;4893113;29;36776;-81
2023/02/17 00:10:41;;;;;;;48.07;17.83;;;9.60;99.90;;;;;;4908120;29;37785;-81
2023/02/17 00:13:07;;;;;;;47.97;18.47;;;9.60;99.90;;;;;;4906086;29;38771;-81
2023/02/17 00:15:33;;;;;;;55.57;19.57;;;9.60;99.90;;;;;;4910435;29;39145;-81
2023/02/17 00:18:00;;;;;;;57.83;19.37;;;9.60;99.90;;;;;;4891703;29;37832;-81
2023/02/17 00:20:27;;;;;;;70.00;21.07;;;9.60;99.90;;;;;;4886345;29;36242;-80
2023/02/17 00:22:53;;;;;;;66.43;20.53;;;9.60;99.90;;;;;;4888699;29;37995;-81
2023/02/17 00:25:20;;;;;;;53.73;19.80;;;9.50;99.90;;;;;;4899606;29;38603;-81
2023/02/17 00:27:46;;;;;;;72.30;22.43;;;9.50;99.90;;;;;;4895901;29;37047;-82
2023/02/17 00:30:12;;;;;;;66.27;21.00;;;9.50;99.90;;;;;;4911074;29;36373;-81
2023/02/17 00:32:38;;;;;;;55.30;20.97;;;9.50;99.90;;;;;;4911769;29;39199;-81
2023/02/17 00:35:07;;;;;;;65.33;21.57;;;9.40;99.90;;;;;;4903328;29;37862;-82
2023/02/17 00:37:34;;;;;;;56.77;20.70;;;9.40;99.90;;;;;;4914840;29;38105;-81
2023/02/17 00:40:00;;;;;;;54.27;19.27;;;9.40;99.90;;;;;;4920677;29;38179;-81
2023/02/17 00:42:27;;;;;;;61.93;20.30;;;9.40;99.90;;;;;;4919613;29;38358;-81
2023/02/17 00:44:56;;;;;;;53.90;19.57;;;9.40;99.90;;;;;;4910313;29;37466;-81
2023/02/17 00:47:22;;;;;;;55.37;18.97;;;9.30;99.90;;;;;;4913866;29;37692;-82
2023/02/17 00:49:48;;;;;;;52.90;17.77;;;9.30;99.90;;;;;;4898273;29;37552;-81
2023/02/17 00:52:14;;;;;;;55.50;18.67;;;9.30;99.90;;;;;;4898599;29;37748;-81
2023/02/17 00:54:40;;;;;;;58.63;18.23;;;9.30;99.90;;;;;;4907240;29;36907;-81
2023/02/17 00:57:06;;;;;;;59.67;17.87;;;9.30;99.90;;;;;;4914862;29;39379;-81
2023/02/17 00:59:32;;;;;;;57.90;19.17;;;9.30;99.90;;;;;;4909562;28;36726;-82
2023/02/17 01:01:58;;;;;;;52.70;19.10;;;9.30;99.90;;;;;;4899234;29;35576;-81
2023/02/17 01:04:25;;;;;;;55.57;18.93;;;9.30;99.90;;;;;;4893687;29;37410;-80
2023/02/17 01:06:51;;;;;;;64.90;21.87;;;9.30;99.90;;;;;;4909726;29;39268;-81
2023/02/17 01:09:17;;;;;;;70.37;20.27;;;9.40;99.90;;;;;;4910113;29;36917;-81
2023/02/17 01:11:43;;;;;;;59.40;21.83;;;9.30;99.90;;;;;;4902474;29;38402;-82
2023/02/17 01:14:12;;;;;;;60.10;20.67;;;9.40;99.90;;;;;;4924886;29;37755;-81
2023/02/17 01:16:40;;;;;;;67.43;22.70;;;9.40;99.90;;;;;;4904804;29;37758;-81
2023/02/17 01:19:11;;;;;;;71.27;23.60;;;9.40;99.90;;;;;;4913464;29;38009;-81
2023/02/17 01:21:37;;;;;;;62.80;23.50;;;9.30;99.90;;;;;;4911646;29;38497;-81
2023/02/17 01:24:05;;;;;;;60.60;23.07;;;9.30;99.90;;;;;;4900297;29;37567;-81
2023/02/17 01:26:33;;;;;;;72.77;24.90;;;9.40;99.90;;;;;;4910751;29;39651;-82
2023/02/17 01:28:59;;;;;;;59.20;21.87;;;9.40;99.90;;;;;;4895363;29;36675;-81
2023/02/17 01:31:26;;;;;;;44.87;19.03;;;9.40;99.90;;;;;;4910832;29;38052;-81
2023/02/17 01:33:58;;;;;;;44.67;18.37;;;9.30;99.90;;;;;;4913124;29;39458;-81
2023/02/17 01:36:24;;;;;;;59.47;21.70;;;9.30;99.90;;;;;;4917271;29;37020;-82
2023/02/17 01:38:50;;;;;;;53.37;21.07;;;9.30;99.90;;;;;;4897216;29;37270;-82
2023/02/17 01:41:19;;;;;;;57.57;21.43;;;9.30;99.90;;;;;;4893821;29;37431;-81
2023/02/17 01:44:11;;;;;;;60.33;22.50;;;9.30;99.90;;;;;;4893402;29;37341;-81
2023/02/17 01:46:40;;;;;;;68.07;22.83;;;9.30;99.90;;;;;;4894966;29;47138;-81
2023/02/17 01:49:37;;;;;;;64.43;23.90;;;9.30;99.90;;;;;;4893681;29;36792;-82
2023/02/17 01:52:18;;;;;;;70.23;26.53;;;9.30;99.90;;;;;;4888865;29;40222;-81
2023/02/17 01:54:51;;;;;;;55.70;23.93;;;9.40;99.90;;;;;;4905990;29;38942;-82
2023/02/17 01:57:20;;;;;;;75.50;26.73;;;9.40;99.90;;;;;;4910221;29;38237;-81
2023/02/17 01:59:47;;;;;;;66.53;25.50;;;9.30;99.90;;;;;;4899711;29;36583;-82
2023/02/17 02:02:14;;;;;;;62.57;23.77;;;9.30;99.90;;;;;;5275382;23;39280;-81
2023/02/17 02:04:48;;;;;;;62.50;22.93;;;9.30;99.90;;;;;;4926681;28;38494;-81
2023/02/17 02:07:19;;;;;;;57.13;21.83;;;9.30;99.90;;;;;;4938849;28;38875;-81
2023/02/17 02:09:50;;;;;;;58.17;21.83;;;9.30;99.90;;;;;;4920815;29;36283;-81
2023/02/17 02:12:23;;;;;;;59.60;21.43;;;9.30;99.90;;;;;;4919924;29;38198;-81
2023/02/17 02:14:50;;;;;;;49.00;18.87;;;9.30;99.90;;;;;;4937315;28;37392;-81
2023/02/17 02:17:25;;;;;;;46.33;18.77;;;9.20;99.90;;;;;;4922077;29;37203;-81
2023/02/17 02:19:54;;;;;;;51.37;20.07;;;9.30;99.90;;;;;;4937706;28;39482;-81
2023/02/17 02:22:53;;;;;;;53.47;18.73;;;9.30;99.90;;;;;;4933371;28;38560;-81
2023/02/17 02:25:32;;;;;;;56.93;18.90;;;9.30;99.90;;;;;;4909405;28;37299;-81
2023/02/17 02:28:11;;;;;;;42.53;17.10;;;9.30;99.90;;;;;;4928368;29;37335;-81
2023/02/17 02:30:49;;;;;;;50.33;18.80;;;9.30;99.90;;;;;;4923009;29;47424;-82
2023/02/17 02:33:38;;;;;;;55.80;21.13;;;9.30;99.90;;;;;;4938144;28;39219;-81
2023/02/17 02:36:11;;;;;;;54.47;21.27;;;9.40;99.90;;;;;;4934308;28;38098;-81
2023/02/17 02:38:51;;;;;;;59.63;23.03;;;9.30;99.90;;;;;;4935163;29;38307;-81
2023/02/17 02:41:26;;;;;;;57.43;24.83;;;9.40;99.90;;;;;;4917814;29;37564;-82
2023/02/17 02:43:52;;;;;;;59.63;26.50;;;9.40;99.90;;;;;;4938984;28;39029;-81
2023/02/17 02:46:18;;;;;;;59.67;28.47;;;9.40;99.90;;;;;;4936445;28;38868;-81
2023/02/17 02:48:45;;;;;;;65.27;31.13;;;9.40;99.90;;;;;;4920275;28;38002;-81
2023/02/17 02:51:51;;;;;;;67.83;32.27;;;9.40;99.90;;;;;;4918837;29;36536;-81
2023/02/17 02:54:35;;;;;;;73.77;33.67;;;9.50;99.90;;;;;;4899850;29;38939;-81
2023/02/17 02:57:07;;;;;;;78.93;36.10;;;9.50;99.90;;;;;;4934370;28;38076;-81
2023/02/17 02:59:41;;;;;;;88.22;37.00;;;9.50;99.90;;;;;;4930400;28;37117;-81
2023/02/17 03:02:13;;;;;;;82.50;37.60;;;9.50;99.90;;;;;;4913227;29;37445;-81
2023/02/17 03:05:17;;;;;;;76.27;35.70;;;9.60;99.90;;;;;;4913554;29;37537;-81
2023/02/17 03:08:39;;;;;;;78.50;34.17;;;9.60;99.90;;;;;;4889299;29;47160;-80
2023/02/17 03:11:05;;;;;;;74.07;32.87;;;9.60;99.90;;;;;;4877848;29;47363;-80
2023/02/17 03:13:38;;;;;;;68.03;32.20;;;9.60;99.90;;;;;;4927730;28;38810;-81
2023/02/17 03:16:06;;;;;;;65.82;30.50;;;9.70;99.90;;;;;;4911641;29;37922;-82
2023/02/17 03:18:33;;;;;;;58.87;28.30;;;9.70;99.90;;;;;;4912985;29;39284;-80
2023/02/17 03:21:15;;;;;;;57.93;26.10;;;9.70;99.90;;;;;;4932100;28;38132;-81
2023/02/17 03:23:41;;;;;;;52.80;23.73;;;9.70;99.90;;;;;;4941406;28;49757;-82
2023/02/17 03:26:07;;;;;;;52.73;23.47;;;9.80;99.90;;;;;;4940497;28;38545;-81
2023/02/17 03:28:33;;;;;;;47.27;22.23;;;9.90;99.90;;;;;;4938404;29;38709;-81
2023/02/17 03:30:59;;;;;;;47.83;20.37;;;9.90;99.90;;;;;;4921095;29;37061;-82
2023/02/17 03:33:25;;;;;;;38.57;19.93;;;9.90;99.90;;;;;;4935285;29;37364;-81
2023/02/17 03:35:51;;;;;;;42.30;20.03;;;9.90;99.90;;;;;;4933579;28;38602;-81
2023/02/17 03:38:17;;;;;;;43.23;21.73;;;9.90;99.90;;;;;;4915963;29;38227;-82
2023/02/17 03:40:43;;;;;;;42.73;20.23;;;9.90;99.90;;;;;;4916349;29;37681;-81
2023/02/17 03:43:09;;;;;;;40.33;22.10;;;10.00;99.90;;;;;;4915276;29;37193;-81
2023/02/17 03:45:36;;;;;;;45.77;21.87;;;10.00;99.90;;;;;;4932773;29;38577;-81
2023/02/17 03:48:03;;;;;;;45.43;21.47;;;10.00;99.90;;;;;;4914349;29;37114;-82
2023/02/17 03:50:30;;;;;;;40.47;21.83;;;10.00;99.90;;;;;;4931850;29;38227;-81
2023/02/17 03:52:56;;;;;;;42.50;21.03;;;10.00;99.90;;;;;;4920295;28;36809;-82
2023/02/17 03:55:22;;;;;;;48.40;22.87;;;10.10;99.90;;;;;;4937058;28;39176;-81
2023/02/17 03:57:48;;;;;;;56.07;25.00;;;10.10;99.90;;;;;;4932236;28;38166;-81
2023/02/17 04:00:14;;;;;;;40.93;23.57;;;10.10;99.90;;;;;;4914369;29;38009;-81
2023/02/17 04:02:41;;;;;;;45.23;24.03;;;10.10;99.90;;;;;;4910481;29;37727;-80
2023/02/17 04:05:07;;;;;;;52.70;24.87;;;10.20;99.90;;;;;;4913538;29;37696;-81
2023/02/17 04:07:33;;;;;;;52.50;25.43;;;10.10;99.90;;;;;;4913024;29;38635;-81
2023/02/17 04:09:59;;;;;;;58.70;26.37;;;10.10;99.90;;;;;;4929524;28;38816;-81
2023/02/17 04:12:25;;;;;;;48.20;25.00;;;10.10;99.90;;;;;;4931219;28;36479;-81
2023/02/17 04:14:51;;;;;;;54.50;26.97;;;10.10;99.90;;;;;;4934193;28;38962;-80
2023/02/17 04:17:17;;;;;;;59.77;30.37;;;10.20;99.90;;;;;;4918554;29;38499;-81
2023/02/17 04:19:43;;;;;;;57.57;28.53;;;10.10;99.90;;;;;;4928196;28;37050;-81
2023/02/17 04:22:09;;;;;;;64.27;30.10;;;10.20;99.90;;;;;;4912481;29;37751;-80
2023/02/17 04:24:36;;;;;;;65.37;31.37;;;10.20;99.90;;;;;;4903815;28;37817;-81
2023/02/17 04:27:03;;;;;;;58.90;29.67;;;10.20;99.90;;;;;;4910861;29;38163;-81
2023/02/17 04:29:30;;;;;;;62.80;28.77;;;10.20;99.90;;;;;;4911185;29;38369;-82
2023/02/17 04:31:56;;;;;;;59.93;29.13;;;10.20;99.90;;;;;;4925470;28;37006;-81
2023/02/17 04:34:22;;;;;;;53.90;30.20;;;10.20;99.90;;;;;;4911450;29;40203;-81
2023/02/17 04:36:48;;;;;;;62.00;31.10;;;10.20;99.90;;;;;;4930865;29;38648;-81
2023/02/17 04:39:14;;;;;;;57.67;30.73;;;10.20;99.90;;;;;;4912835;29;37002;-80
2023/02/17 04:41:41;;;;;;;59.10;31.93;;;10.20;99.90;;;;;;4928043;29;37138;-81
2023/02/17 04:44:07;;;;;;;70.67;33.57;;;10.20;99.90;;;;;;4927854;28;38465;-81
2023/02/17 04:46:33;;;;;;;66.97;33.87;;;10.20;99.90;;;;;;4928614;28;38474;-81
2023/02/17 04:48:59;;;;;;;63.73;33.73;;;10.30;99.90;;;;;;4928726;28;37889;-81
2023/02/17 04:51:25;;;;;;;66.53;34.67;;;10.30;99.90;;;;;;4926818;28;38489;-82
2023/02/17 04:53:51;;;;;;;78.50;34.60;;;10.30;99.90;;;;;;4913879;29;37854;-82
2023/02/17 04:56:17;;;;;;;63.57;33.33;;;10.30;99.90;;;;;;4914283;28;37142;-81
2023/02/17 04:58:43;;;;;;;61.93;33.80;;;10.30;99.90;;;;;;4906755;29;37055;-81
2023/02/17 05:01:09;;;;;;;63.70;33.23;;;10.30;99.90;;;;;;4923941;28;37165;-81
2023/02/17 05:03:35;;;;;;;64.50;32.43;;;10.40;99.90;;;;;;4921623;28;36993;-81
2023/02/17 05:06:02;;;;;;;63.40;33.07;;;10.40;99.90;;;;;;4920271;28;38564;-81
2023/02/17 05:08:28;;;;;;;66.97;31.80;;;10.40;99.90;;;;;;4904132;29;37961;-82
2023/02/17 05:10:54;;;;;;;62.97;33.00;;;10.40;99.90;;;;;;4924915;28;36289;-81
2023/02/17 05:13:20;;;;;;;64.97;33.47;;;10.40;99.90;;;;;;4934467;28;38548;-82
2023/02/17 05:15:46;;;;;;;68.00;32.77;;;10.40;99.90;;;;;;4909504;29;38105;-82
2023/02/17 05:18:13;;;;;;;70.07;31.37;;;10.40;99.90;;;;;;4916835;29;36882;-81
2023/02/17 05:20:39;;;;;;;63.50;32.63;;;10.40;99.90;;;;;;4915345;29;36192;-81
2023/02/17 05:23:05;;;;;;;70.13;32.07;;;10.50;99.90;;;;;;4912151;29;35954;-81
2023/02/17 05:25:31;;;;;;;63.60;30.13;;;10.40;99.90;;;;;;4911735;28;37261;-81
2023/02/17 05:27:57;;;;;;;51.73;27.70;;;10.50;99.90;;;;;;4915035;29;36901;-81
2023/02/17 05:30:23;;;;;;;52.70;27.20;;;10.50;99.90;;;;;;4905963;29;36407;-81
2023/02/17 05:32:52;;;;;;;61.50;26.60;;;10.40;99.90;;;;;;4928485;28;37742;-81
2023/02/17 05:35:18;;;;;;;57.60;27.07;;;10.50;99.90;;;;;;4926381;28;39003;-81
2023/02/17 05:37:44;;;;;;;53.67;25.50;;;10.40;99.90;;;;;;4931219;29;38021;-81
2023/02/17 05:40:10;;;;;;;51.07;24.97;;;10.40;99.90;;;;;;4932178;29;38098;-81
2023/02/17 05:42:36;;;;;;;55.00;23.85;;;10.40;99.90;;;;;;4912991;29;37580;-81
2023/02/17 05:45:04;;;;;;;48.67;23.30;;;10.40;99.90;;;;;;4930396;29;38125;-82
2023/02/17 05:47:30;;;;;;;63.10;26.38;;;10.40;99.90;;;;;;4932796;28;48259;-81
2023/02/17 05:49:56;;;;;;;54.07;24.30;;;10.40;99.90;;;;;;4909318;29;36282;-81
2023/02/17 05:52:22;;;;;;;47.57;24.90;;;10.50;99.90;;;;;;4934766;28;37789;-81
2023/02/17 05:54:48;;;;;;;47.13;24.15;;;10.50;99.90;;;;;;4919934;29;37585;-82
2023/02/17 05:57:14;;;;;;;47.25;24.90;;;10.50;99.90;;;;;;4936933;28;37766;-81
2023/02/17 05:59:41;;;;;;;48.45;26.02;;;10.50;99.90;;;;;;4933106;28;36265;-80
2023/02/17 06:02:07;;;;;;;50.57;25.20;;;10.60;99.90;;;;;;4916925;29;37636;-80
2023/02/17 06:04:33;;;;;;;47.27;23.93;;;10.50;99.90;;;;;;4901489;29;37040;-82
2023/02/17 06:06:59;;;;;;;51.47;25.53;;;10.50;99.90;;;;;;4931244;28;36659;-81
2023/02/17 06:09:25;;;;;;;42.87;23.03;;;10.60;99.90;;;;;;4933080;28;38776;-81
2023/02/17 06:11:52;;;;;;;47.20;24.20;;;10.60;99.90;;;;;;4917032;29;35984;-81
2023/02/17 06:14:18;;;;;;;48.37;24.07;;;10.60;99.90;;;;;;4941424;28;38977;-81
2023/02/17 06:16:44;;;;;;;50.40;24.47;;;10.60;99.90;;;;;;4914440;29;37410;-82
2023/02/17 06:19:10;;;;;;;49.20;24.83;;;10.60;99.90;;;;;;4917158;29;37342;-81
2023/02/17 06:21:36;;;;;;;49.40;25.27;;;10.60;99.90;;;;;;4935312;28;38103;-82
2023/02/17 06:24:02;;;;;;;48.73;25.00;;;10.60;99.90;;;;;;4929626;29;38102;-83
2023/02/17 06:26:28;;;;;;;50.20;24.90;;;10.60;99.90;;;;;;4945081;28;38281;-82
2023/02/17 06:28:55;;;;;;;53.23;25.90;;;10.70;99.90;;;;;;4928997;29;35800;-82
2023/02/17 06:31:21;;;;;;;48.67;24.53;;;10.70;99.90;;;;;;4945154;29;39137;-81
2023/02/17 06:33:47;;;;;;;42.03;22.60;;;10.70;99.90;;;;;;4920839;29;36612;-81
2023/02/17 06:36:13;;;;;;;43.77;24.40;;;10.70;99.90;;;;;;4922381;29;37412;-83
2023/02/17 06:38:39;;;;;;;45.83;24.13;;;10.70;99.90;;;;;;4953908;29;37773;-82
2023/02/17 06:41:11;;;;;;;39.20;22.80;;;10.70;99.90;;;;;;4927906;28;37601;-81
2023/02/17 06:43:37;;;;;;;42.58;24.05;;;10.70;99.90;;;;;;4942478;28;37274;-82
2023/02/17 06:46:03;;;;;;;42.00;23.13;;;10.80;99.90;;;;;;4943247;28;37615;-81
2023/02/17 06:48:36;;;;;;;38.65;22.58;;;10.80;99.90;;;;;;4953785;28;37494;-81
2023/02/17 06:51:02;;;;;;;34.30;22.20;;;10.80;99.90;;;;;;4944034;28;38831;-82
2023/02/17 06:53:28;;;;;;;40.80;23.80;;;10.80;99.90;;;;;;4936262;29;38099;-82
2023/02/17 06:56:05;;;;;;;39.13;22.50;;;10.80;99.90;;;;;;4940705;29;35748;-82
2023/02/17 06:58:34;;;;;;;39.43;23.67;;;10.80;99.90;;;;;;4951319;28;47841;-81
2023/02/17 07:01:00;;;;;;;34.70;22.70;;;10.90;99.90;;;;;;4950319;28;40283;-83
2023/02/17 07:03:26;;;;;;;36.40;23.57;;;10.90;99.90;;;;;;4935075;29;37731;-81
2023/02/17 07:05:58;;;;;;;40.23;22.47;;;10.90;99.90;;;;;;4921752;29;37853;-81
2023/02/17 07:08:25;;;;;;;39.67;22.13;;;10.90;99.90;;;;;;4923503;29;36336;-81
2023/02/17 07:10:51;;;;;;;35.43;22.00;;;10.80;99.90;;;;;;4920394;29;38860;-81
2023/02/17 07:13:17;;;;;;;37.33;23.53;;;10.90;99.90;;;;;;4932625;28;38063;-81
2023/02/17 07:15:43;;;;;;;39.17;24.17;;;10.90;99.90;;;;;;4936089;28;37660;-83
2023/02/17 07:18:09;;;;;;;42.60;25.73;;;10.80;99.90;;;;;;4933503;28;37841;-81
2023/02/17 07:20:35;;;;;;;42.07;24.47;;;10.80;99.90;;;;;;4917228;29;38972;-80
2023/02/17 07:23:01;;;;;;;42.27;25.67;;;10.80;99.90;;;;;;4914730;29;37636;-81
2023/02/17 07:25:27;;;;;;;40.40;26.07;;;10.80;99.90;;;;;;4919837;29;37366;-81
2023/02/17 07:27:53;;;;;;;41.07;24.50;;;10.80;99.90;;;;;;4935916;28;37731;-80
2023/02/17 07:30:19;;;;;;;38.50;23.40;;;10.80;99.90;;;;;;4918460;28;40354;-80
2023/02/17 07:32:46;;;;;;;40.87;24.83;;;10.80;99.90;;;;;;4945463;29;37919;-82
2023/02/17 07:35:25;;;;;;;36.67;23.73;;;10.80;99.90;;;;;;4933515;29;37243;-82
2023/02/17 07:38:00;;;;;;;36.53;24.40;;;10.80;99.90;;;;;;4939169;28;36590;-82
2023/02/17 07:40:27;;;;;;;46.13;23.67;;;10.80;99.90;;;;;;4932805;29;39017;-82
2023/02/17 07:43:20;;;;;;;38.75;21.67;;;10.80;99.90;;;;;;4948383;28;39718;-83
2023/02/17 07:45:46;;;;;;;36.07;21.80;;;10.80;99.90;;;;;;4949482;23;50298;-79
2023/02/17 07:48:12;;;;;;;37.33;20.87;;;10.80;99.90;;;;;;4922171;29;37449;-79
2023/02/17 07:50:38;;;;;;;40.07;21.90;;;10.80;99.90;;;;;;4913786;29;38642;-79
2023/02/17 07:53:04;;;;;;;37.70;22.00;;;10.80;99.90;;;;;;4919625;29;37425;-80
2023/02/17 07:55:31;;;;;;;37.53;21.70;;;10.80;99.90;;;;;;4901380;29;37073;-81
2023/02/17 07:57:58;;;;;;;35.13;21.57;;;10.80;99.90;;;;;;4904631;29;37860;-79
2023/02/17 08:00:25;;;;;;;37.70;21.40;;;10.80;99.90;;;;;;4920182;29;39555;-80
2023/02/17 08:02:51;;;;;;;33.17;21.33;;;10.80;99.90;;;;;;4903346;29;37252;-80
2023/02/17 08:05:17;;;;;;;35.33;21.77;;;10.90;99.90;;;;;;4920679;29;38184;-79
2023/02/17 08:07:43;;;;;;;35.93;20.97;;;10.90;99.90;;;;;;4921720;29;37751;-80
2023/02/17 08:15:25;;;;;;;32.67;18.23;;;11.00;99.90;;;;;;4914143;29;38490;-80
2023/02/17 08:17:52;;;;;;;29.30;18.17;;;11.00;99.90;;;;;;4914736;29;37255;-80
2023/02/17 08:20:19;;;;;;;27.77;17.27;;;11.00;99.90;;;;;;4901159;29;39627;-79
2023/02/17 08:22:45;;;;;;;30.13;18.10;;;11.10;99.90;;;;;;4919747;29;38130;-80
2023/02/17 08:25:11;;;;;;;24.90;16.90;;;11.10;99.90;;;;;;4921529;29;38131;-80
2023/02/17 08:27:37;;;;;;;25.75;17.45;;;11.20;99.90;;;;;;4920737;29;37308;-80
2023/02/17 08:30:04;;;;;;;27.60;16.83;;;11.10;99.90;;;;;;4920692;29;38694;-80
2023/02/17 08:32:30;;;;;;;32.03;18.20;;;11.20;99.90;;;;;;4905309;29;37274;-79
2023/02/17 08:34:56;;;;;;;26.65;16.70;;;11.20;99.90;;;;;;4901125;29;38288;-80
2023/02/17 08:37:22;;;;;;;26.63;16.77;;;11.10;99.90;;;;;;4911961;29;38395;-80
2023/02/17 08:39:48;;;;;;;31.35;17.90;;;11.10;99.90;;;;;;4912414;29;40532;-81
2023/02/17 08:42:16;;;;;;;30.67;18.93;;;11.10;99.90;;;;;;4919465;29;38692;-80
2023/02/17 08:44:42;;;;;;;26.45;16.80;;;11.10;99.90;;;;;;4918127;29;39327;-80
2023/02/17 08:47:09;;;;;;;27.73;16.40;;;11.20;99.90;;;;;;4925611;29;37250;-80
2023/02/17 08:49:35;;;;;;;27.60;18.20;;;11.20;99.90;;;;;;4898372;29;39270;-80
2023/02/17 08:52:02;;;;;;;34.20;19.90;;;11.20;99.90;;;;;;4914631;29;38447;-80
2023/02/17 08:54:28;;;;;;;31.87;19.70;;;11.20;99.90;;;;;;4912726;29;48228;-80
2023/02/17 08:56:55;;;;;;;28.13;19.08;;;11.20;99.90;;;;;;4902074;29;35997;-79
2023/02/17 08:59:21;;;;;;;33.27;20.17;;;11.20;99.90;;;;;;4910712;29;40007;-80
2023/02/17 09:01:47;;;;;;;29.13;17.63;;;11.10;99.90;;;;;;4918119;29;39318;-80
2023/02/17 09:04:15;;;;;;;25.98;15.18;;;11.20;99.90;;;;;;4917253;29;38061;-80
2023/02/17 09:06:42;;;;;;;29.93;16.37;;;11.10;99.90;;;;;;4898451;29;39071;-80
2023/02/17 09:09:10;;;;;;;22.17;13.37;;;11.10;99.90;;;;;;4918095;29;37821;-80
2023/02/17 09:11:37;;;;;;;24.20;13.30;;;11.10;99.90;;;;;;4901761;29;38730;-79
2023/02/17 09:14:04;;;;;;;24.70;14.60;;;11.10;99.90;;;;;;4916612;29;38313;-80
2023/02/17 09:16:30;;;;;;;21.60;11.93;;;11.10;99.90;;;;;;4920935;28;37973;-79
2023/02/17 09:18:57;;;;;;;22.67;12.30;;;11.10;99.90;;;;;;4902561;29;39547;-80
2023/02/17 09:21:23;;;;;;;20.83;10.77;;;11.10;99.90;;;;;;4899177;29;37443;-79
2023/02/17 09:23:50;;;;;;;22.00;11.53;;;11.00;99.90;;;;;;4917427;29;39648;-79
2023/02/17 09:26:17;;;;;;;20.90;11.37;;;10.90;99.90;;;;;;4917562;29;38669;-79
2023/02/17 09:28:44;;;;;;;28.07;13.53;;;11.00;99.90;;;;;;4901960;29;40768;-80
2023/02/17 09:31:12;;;;;;;21.23;11.97;;;11.00;99.90;;;;;;4901162;29;39050;-80
2023/02/17 09:33:40;;;;;;;22.10;12.30;;;11.10;99.90;;;;;;4900682;29;38793;-80
2023/02/17 09:36:09;;;;;;;23.63;13.82;;;11.20;99.90;;;;;;4913668;29;38054;-79
2023/02/17 09:38:37;;;;;;;25.92;13.13;;;11.20;99.90;;;;;;4918296;29;38900;-80
2023/02/17 09:41:43;;;;;;;23.70;12.93;;;11.30;99.90;;;;;;4897183;29;37926;-80
2023/02/17 09:44:43;;;;;;;23.23;12.90;;;11.30;99.90;;;;;;4908999;29;36887;-80
2023/02/17 09:47:18;;;;;;;25.98;14.15;;;11.40;99.90;;;;;;4894240;29;37900;-80
2023/02/17 09:50:06;;;;;;;19.65;13.48;;;11.40;99.90;;;;;;4900661;29;37657;-79
2023/02/17 09:52:41;;;;;;;22.75;14.48;;;11.30;99.90;;;;;;4910624;29;47177;-79
2023/02/17 09:55:15;;;;;;;21.20;12.87;;;11.40;99.90;;;;;;4899224;29;37213;-80
2023/02/17 09:57:56;;;;;;;19.52;12.10;;;11.40;99.90;;;;;;4915973;29;36466;-79
2023/02/17 10:00:38;;;;;;;17.83;11.65;;;11.50;99.90;;;;;;4897925;29;39050;-80
2023/02/17 10:03:20;;;;;;;19.47;10.50;;;11.50;99.90;;;;;;4896837;29;40064;-80
2023/02/17 10:06:21;;;;;;;19.27;9.70;;;11.60;99.90;;;;;;4900990;29;39660;-77
2023/02/17 10:08:59;;;;;;;17.25;11.18;;;11.60;99.90;;;;;;4893755;29;47229;-79
2023/02/17 10:11:49;;;;;;;24.17;10.75;;;11.60;99.90;;;;;;4900300;29;37632;-81
2023/02/17 10:14:21;;;;;;;20.60;10.95;;;11.50;99.90;;;;;;4918109;29;38477;-78
2023/02/17 10:16:52;;;;;;;15.55;11.00;;;11.50;99.90;;;;;;4924775;29;38416;-78
2023/02/17 10:19:29;;;;;;;22.73;13.13;;;11.50;99.90;;;;;;4922586;29;36392;-78
2023/02/17 10:22:03;;;;;;;22.80;13.77;;;11.60;99.90;;;;;;4899592;29;39547;-79
2023/02/17 10:24:30;;;;;;;25.13;13.90;;;11.50;99.90;;;;;;4899329;29;48257;-79
2023/02/17 10:27:18;;;;;;;25.27;14.82;;;11.50;99.90;;;;;;4896577;29;39820;-78
2023/02/17 10:30:28;;;;;;;24.20;14.40;;;11.60;99.90;;;;;;4921287;29;48272;-79
2023/02/17 10:33:21;;;;;;;19.73;12.23;;;11.50;99.90;;;;;;4837503;29;47971;-78
2023/02/17 10:35:50;;;;;;;;;;;11.60;99.90;;;;;;4834621;29;47093;-79
2023/02/17 10:38:43;;;;;;;22.65;11.75;;;11.60;99.90;;;;;;4882029;29;38140;-79
2023/02/17 10:41:13;;;;;;;20.73;11.23;;;11.60;99.90;;;;;;4900441;29;35414;-79
2023/02/17 10:43:40;;;;;;;20.73;12.00;;;11.60;99.90;;;;;;4899390;29;39563;-79
2023/02/17 10:46:07;;;;;;;26.05;11.07;;;11.60;99.90;;;;;;4909497;29;38586;-79
2023/02/17 10:48:39;;;;;;;20.10;10.48;;;11.70;99.90;;;;;;4896751;29;38788;-79
2023/02/17 10:51:06;;;;;;;21.85;8.82;;;11.70;99.90;;;;;;4896774;29;39057;-79
2023/02/17 10:53:37;;;;;;;21.25;9.00;;;11.60;99.90;;;;;;4897612;29;38346;-78
2023/02/17 10:56:13;;;;;;;18.67;8.50;;;11.50;99.90;;;;;;4897980;29;39951;-79
2023/02/17 10:58:58;;;;;;;20.10;8.43;;;11.40;99.90;;;;;;4898748;29;37170;-78
2023/02/17 11:01:24;;;;;;;21.60;8.10;;;11.40;99.90;;;;;;4894199;29;38848;-80
2023/02/17 11:04:11;;;;;;;16.48;7.32;;;11.40;99.90;;;;;;4898926;29;38265;-80
2023/02/17 11:07:00;;;;;;;17.65;7.90;;;11.40;99.90;;;;;;4896455;29;48634;-80
2023/02/17 11:09:31;;;;;;;20.38;7.10;;;11.50;99.90;;;;;;4901963;29;36912;-80
2023/02/17 11:11:59;;;;;;;16.70;6.88;;;11.40;99.90;;;;;;4919625;29;37117;-80
2023/02/17 11:14:32;;;;;;;17.65;7.15;;;11.30;99.90;;;;;;4897052;29;37896;-81
2023/02/17 11:17:16;;;;;;;23.87;6.97;;;11.30;99.90;;;;;;4894738;29;38588;-80
2023/02/17 11:19:57;;;;;;;14.48;6.28;;;11.30;99.90;;;;;;4902849;29;46806;-81
2023/02/17 11:22:39;;;;;;;18.33;6.55;;;11.30;99.90;;;;;;4900176;29;37914;-80
2023/02/17 11:25:27;;;;;;;20.42;7.10;;;11.30;99.90;;;;;;4916504;29;38595;-81
2023/02/17 11:27:56;;;;;;;20.93;6.87;;;11.30;99.90;;;;;;4889424;29;37443;-82
2023/02/17 11:30:23;;;;;;;14.60;6.18;;;11.30;99.90;;;;;;4899168;29;36810;-80
2023/02/17 11:32:50;;;;;;;17.30;6.60;;;11.30;99.90;;;;;;4914858;29;37189;-80
2023/02/17 11:35:48;;;;;;;22.25;6.57;;;11.40;99.90;;;;;;4898656;29;40795;-79
2023/02/17 11:38:17;;;;;;;22.17;6.85;;;11.40;99.90;;;;;;4912486;29;40084;-80
2023/02/17 11:41:13;;;;;;;22.50;7.00;;;11.40;99.90;;;;;;4895056;29;37994;-80
2023/02/17 11:43:58;;;;;;;23.45;6.63;;;11.40;99.90;;;;;;4887332;29;47981;-81
2023/02/17 11:46:55;;;;;;;23.70;6.90;;;11.30;99.90;;;;;;4918372;29;38645;-80
2023/02/17 11:49:37;;;;;;;18.80;5.85;;;11.40;99.90;;;;;;4913975;29;38341;-81
2023/02/17 11:52:26;;;;;;;27.07;6.57;;;11.40;99.90;;;;;;4917050;29;37663;-81
2023/02/17 11:55:01;;;;;;;16.65;5.63;;;11.40;99.90;;;;;;4893949;29;47250;-80
2023/02/17 11:57:45;;;;;;;20.15;6.45;;;11.40;99.90;;;;;;4918274;29;37819;-81
2023/02/17 12:00:46;;;;;;;21.98;5.53;;;11.50;99.90;;;;;;4919832;29;38353;-81
2023/02/17 12:03:48;;;;;;;19.58;5.22;;;11.50;99.90;;;;;;4896646;29;48244;-79
2023/02/17 12:06:30;;;;;;;25.73;5.93;;;11.60;99.90;;;;;;4904238;29;36153;-79
2023/02/17 12:09:03;;;;;;;23.27;5.50;;;11.80;99.90;;;;;;4916491;29;38598;-79
2023/02/17 12:11:50;;;;;;;19.17;4.90;;;11.80;99.90;;;;;;4899916;29;47463;-79
2023/02/17 12:14:50;;;;;;;14.85;4.82;;;11.90;99.90;;;;;;4914508;29;37868;-78
2023/02/17 12:17:36;;;;;;;14.93;4.63;;;11.90;99.90;;;;;;4917046;29;38622;-79
2023/02/17 12:20:21;;;;;;;19.55;5.55;;;11.90;99.90;;;;;;4897208;29;40751;-79
2023/02/17 12:23:35;;;;;;;16.35;4.80;;;11.70;99.90;;;;;;4895789;29;47216;-79
2023/02/17 12:26:30;;;;;;;13.45;5.32;;;11.70;99.90;;;;;;4876506;29;48346;-79
2023/02/17 12:29:14;;;;;;;20.42;6.47;;;11.70;99.90;;;;;;4860075;29;48435;-81
2023/02/17 12:31:41;;;;;;;17.25;5.07;;;11.80;99.90;;;;;;4910506;29;48660;-80
2023/02/17 12:34:18;;;;;;;21.00;6.88;;;11.80;99.90;;;;;;4904507;29;37472;-80
2023/02/17 12:36:49;;;;;;;18.95;5.70;;;11.80;99.90;;;;;;4911308;29;38449;-80
2023/02/17 12:39:39;;;;;;;16.17;5.47;;;11.90;99.90;;;;;;4923012;29;37345;-80
2023/02/17 12:42:30;;;;;;;23.23;6.68;;;11.80;99.90;;;;;;4905278;29;39025;-80
2023/02/17 12:45:14;;;;;;;18.05;5.18;;;11.80;99.90;;;;;;4923336;29;37451;-81
2023/02/17 12:47:57;;;;;;;14.95;5.53;;;11.80;99.90;;;;;;4919017;29;47189;-81
2023/02/17 12:50:36;;;;;;;17.17;5.20;;;11.70;99.90;;;;;;4902192;29;36291;-80
2023/02/17 12:53:07;;;;;;;20.25;5.22;;;11.70;99.90;;;;;;4916658;29;38483;-81
2023/02/17 12:55:51;;;;;;;25.73;5.07;;;11.60;99.90;;;;;;4905332;29;38553;-80
2023/02/17 12:58:23;;;;;;;21.17;5.22;;;11.50;99.90;;;;;;4915317;29;38118;-81